createdAt,value
2019-01-14T00:02:07.408Z,75247.92
2019-01-14T00:04:33.300Z,75251.92
2019-01-14T00:06:59.201Z,75245.92
2019-01-14T00:09:31.257Z,75253.92
2019-01-14T00:11:53.385Z,75274.94
2019-01-14T00:14:19.331Z,75271.94
2019-01-14T00:16:45.224Z,75271.94
2019-01-14T00:19:11.161Z,75268.93
2019-01-14T00:21:37.157Z,75271.94
2019-01-14T00:24:03.262Z,75275.94
2019-01-14T00:26:29.162Z,75280.94
2019-01-14T00:28:55.064Z,75293.94
2019-01-14T00:31:20.973Z,75295.94
2019-01-14T00:33:47.471Z,75294.94
2019-01-14T00:36:17.486Z,75303.94
2019-01-14T00:38:41.085Z,75309.95
2019-01-14T00:41:07.021Z,75318.95
2019-01-14T00:43:32.926Z,75325.95
2019-01-14T00:45:58.819Z,75356.96
2019-01-14T00:48:24.755Z,75345.96
2019-01-14T00:50:50.955Z,75353.96
2019-01-14T00:53:16.838Z,75371.97
2019-01-14T00:55:42.746Z,75367.97
2019-01-14T00:58:08.643Z,75382.97
2019-01-14T01:00:34.545Z,75371.97
2019-01-14T01:03:00.643Z,75367.97
2019-01-14T01:05:26.541Z,75364.97
2019-01-14T01:07:54.713Z,75361.97
2019-01-14T01:10:20.826Z,75374.97
2019-01-14T01:12:46.723Z,75385.97
2019-01-14T01:15:13.525Z,75386.97
2019-01-14T01:17:39.422Z,75382.97
2019-01-14T01:20:07.019Z,75398.98
2019-01-14T01:22:32.954Z,75403.98
2019-01-14T01:24:58.832Z,75418.98
2019-01-14T01:27:24.775Z,75425.98
2019-01-14T01:29:50.670Z,75420.98
2019-01-14T01:32:16.611Z,75426.98
2019-01-14T01:34:42.539Z,75420.98
2019-01-14T01:37:08.477Z,75446.00
2019-01-14T01:39:34.458Z,75447.00
2019-01-14T01:42:00.358Z,75446.00
2019-01-14T01:44:26.378Z,75443.00
2019-01-14T01:46:53.956Z,75462.00
2019-01-14T01:49:19.893Z,75459.00
2019-01-14T01:51:45.846Z,75476.01
2019-01-14T01:54:14.563Z,75478.01
2019-01-14T01:56:40.466Z,75477.01
2019-01-14T01:59:06.377Z,75483.02
2019-01-14T02:01:32.625Z,75483.02
2019-01-14T02:03:58.533Z,75489.02
2019-01-14T02:06:24.441Z,75496.02
2019-01-14T02:08:50.339Z,75518.02
2019-01-14T02:11:16.287Z,75522.03
2019-01-14T02:13:42.188Z,75529.03
2019-01-14T02:16:08.168Z,75538.03
2019-01-14T02:18:34.051Z,75545.04
2019-01-14T02:21:02.794Z,75557.05
2019-01-14T02:23:28.704Z,75556.05
2019-01-14T02:25:54.929Z,75558.05
2019-01-14T02:28:20.828Z,75552.04
2019-01-14T02:30:46.721Z,75552.04
2019-01-14T02:33:12.630Z,75551.04
2019-01-14T02:35:38.687Z,75563.05
2019-01-14T02:38:04.582Z,75564.05
2019-01-14T02:40:30.478Z,75557.05
2019-01-14T02:42:56.436Z,75569.05
2019-01-14T02:45:24.302Z,75568.05
2019-01-14T02:47:50.204Z,75564.05
2019-01-14T02:50:16.140Z,75578.05
2019-01-14T02:52:42.044Z,75584.05
2019-01-14T02:55:11.059Z,75591.05
2019-01-14T02:57:37.008Z,75592.05
2019-01-14T03:00:10.879Z,75593.05
2019-01-14T03:02:36.768Z,75600.06
2019-01-14T03:05:04.075Z,75608.06
2019-01-14T03:07:30.027Z,75618.06
2019-01-14T03:09:56.386Z,75619.06
2019-01-14T03:12:24.536Z,75620.06
2019-01-14T03:14:50.480Z,75626.07
2019-01-14T03:17:16.382Z,75630.07
2019-01-14T03:19:42.325Z,75637.08
2019-01-14T03:22:08.229Z,75654.09
2019-01-14T03:24:34.163Z,75662.09
2019-01-14T03:27:00.073Z,75661.09
2019-01-14T03:29:25.987Z,75679.09
2019-01-14T03:31:51.934Z,75675.09
2019-01-14T03:34:18.139Z,75671.09
2019-01-14T03:36:44.214Z,75669.09
2019-01-14T03:39:10.124Z,75672.09
2019-01-14T03:41:36.035Z,75692.10
2019-01-14T03:44:02.046Z,75693.10
2019-01-14T03:46:27.933Z,75706.11
2019-01-14T03:48:53.843Z,75703.11
2019-01-14T03:51:19.752Z,75716.11
2019-01-14T03:53:45.682Z,75718.11
2019-01-14T03:56:11.587Z,75732.12
2019-01-14T03:58:37.536Z,75714.11
2019-01-14T04:01:03.438Z,75738.13
2019-01-14T04:03:29.343Z,75748.13
2019-01-14T04:05:55.339Z,75753.13
2019-01-14T04:08:21.234Z,75736.13
2019-01-14T04:10:47.148Z,75756.13
2019-01-14T04:13:13.042Z,75751.13
2019-01-14T04:15:38.937Z,75747.13
2019-01-14T04:18:04.869Z,75756.13
2019-01-14T04:20:30.771Z,75769.14
2019-01-14T04:22:56.732Z,75761.14
2019-01-14T04:25:24.850Z,75782.14
2019-01-14T04:27:50.743Z,75792.15
2019-01-14T04:30:18.112Z,75801.16
2019-01-14T04:32:44.000Z,75795.16
2019-01-14T04:35:10.330Z,75788.15
2019-01-14T04:37:36.589Z,75799.16
2019-01-14T04:40:03.839Z,75807.16
2019-01-14T04:42:29.890Z,75810.16
2019-01-14T04:44:55.782Z,75825.16
2019-01-14T04:47:21.691Z,75822.16
2019-01-14T04:49:47.627Z,75828.17
2019-01-14T04:52:13.539Z,75822.16
2019-01-14T04:54:39.452Z,75822.16
2019-01-14T04:57:05.351Z,75832.17
2019-01-14T04:59:31.284Z,75830.17
2019-01-14T05:01:57.188Z,75851.18
2019-01-14T05:04:23.147Z,75853.18
2019-01-14T05:06:49.045Z,75854.18
2019-01-14T05:09:14.994Z,75854.18
2019-01-14T05:11:41.215Z,75850.18
2019-01-14T05:14:07.145Z,75860.19
2019-01-14T05:16:33.056Z,75874.19
2019-01-14T05:18:58.932Z,75862.19
2019-01-14T05:21:24.839Z,75866.19
2019-01-14T05:23:50.744Z,75853.18
2019-01-14T05:26:16.703Z,75864.19
2019-01-14T05:28:42.611Z,75878.19
2019-01-14T05:31:08.505Z,75876.19
2019-01-14T05:33:34.738Z,75875.19
2019-01-14T05:36:01.027Z,75867.19
2019-01-14T05:38:26.928Z,75860.19
2019-01-14T05:40:56.122Z,75867.19
2019-01-14T05:43:22.022Z,75856.19
2019-01-14T05:45:47.926Z,75849.18
2019-01-14T05:48:14.016Z,75860.19
2019-01-14T05:50:39.917Z,75860.19
2019-01-14T05:53:05.822Z,75878.19
2019-01-14T05:55:31.929Z,75875.19
2019-01-14T05:57:57.926Z,75869.19
2019-01-14T06:00:26.543Z,75888.20
2019-01-14T06:02:55.022Z,75876.19
2019-01-14T06:05:20.915Z,75859.19
2019-01-14T06:07:46.855Z,75855.19
2019-01-14T06:10:12.768Z,75868.19
2019-01-14T06:12:38.672Z,75872.19
2019-01-14T06:15:06.442Z,75868.19
2019-01-14T06:17:32.391Z,75874.19
2019-01-14T06:19:58.681Z,75879.20
2019-01-14T06:22:24.569Z,75879.20
2019-01-14T06:24:50.474Z,75890.20
2019-01-14T06:27:16.382Z,75886.20
2019-01-14T06:29:42.283Z,75890.20
2019-01-14T06:32:08.181Z,75885.20
2019-01-14T06:34:34.133Z,75893.20
2019-01-14T06:37:00.088Z,75890.20
2019-01-14T06:39:25.987Z,75899.20
2019-01-14T06:41:53.266Z,75898.20
2019-01-14T06:44:19.180Z,75901.20
2019-01-14T06:46:45.131Z,75918.22
2019-01-14T06:49:11.039Z,75920.22
2019-01-14T06:51:37.250Z,75921.22
2019-01-14T06:54:03.151Z,75920.22
2019-01-14T06:56:29.048Z,75926.22
2019-01-14T06:58:54.953Z,75934.22
2019-01-14T07:01:20.864Z,75943.23
2019-01-14T07:03:46.808Z,75942.23
2019-01-14T07:06:12.762Z,75933.22
2019-01-14T07:08:38.668Z,75940.23
2019-01-14T07:11:05.071Z,75938.23
2019-01-14T07:13:30.987Z,75942.23
2019-01-14T07:15:56.884Z,75955.23
2019-01-14T07:18:24.855Z,75968.24
2019-01-14T07:20:50.768Z,75981.25
2019-01-14T07:23:16.728Z,75996.26
2019-01-14T07:25:42.627Z,76003.26
2019-01-14T07:28:08.530Z,76010.27
2019-01-14T07:30:34.474Z,76003.26
2019-01-14T07:33:00.375Z,76019.27
2019-01-14T07:35:26.281Z,76011.27
2019-01-14T07:37:53.879Z,76016.27
2019-01-14T07:40:19.828Z,76028.28
2019-01-14T07:42:45.838Z,76026.27
2019-01-14T07:45:12.583Z,76025.27
2019-01-14T07:47:38.518Z,76040.28
2019-01-14T07:50:06.227Z,76037.28
2019-01-14T07:52:32.157Z,76036.28
2019-01-14T07:54:58.070Z,76040.28
2019-01-14T07:57:24.032Z,76042.28
2019-01-14T07:59:49.913Z,76040.28
2019-01-14T08:02:18.750Z,76044.28
2019-01-14T08:04:44.648Z,76049.28
2019-01-14T08:07:10.598Z,76052.29
2019-01-14T08:09:39.259Z,76050.29
2019-01-14T08:12:05.209Z,76053.29
2019-01-14T08:14:31.123Z,76059.30
2019-01-14T08:16:57.071Z,76047.28
2019-01-14T08:19:25.957Z,76051.29
2019-01-14T08:21:51.862Z,76071.30
2019-01-14T08:24:17.788Z,76072.30
2019-01-14T08:26:48.185Z,76073.30
2019-01-14T08:29:14.129Z,76084.30
2019-01-14T08:31:40.431Z,76080.30
2019-01-14T08:34:06.404Z,76078.30
2019-01-14T08:36:32.300Z,76082.30
2019-01-14T08:38:58.210Z,76082.30
2019-01-14T08:41:25.507Z,76086.31
2019-01-14T08:43:53.317Z,76092.31
2019-01-14T08:46:20.940Z,76093.31
2019-01-14T08:48:48.878Z,76098.31
2019-01-14T08:51:29.379Z,76103.31
2019-01-14T08:53:49.283Z,76092.31
2019-01-14T08:56:15.207Z,76101.31
2019-01-14T08:58:41.124Z,76097.31
2019-01-14T09:01:07.029Z,76106.32
2019-01-14T09:03:32.934Z,76109.32
2019-01-14T09:05:58.838Z,76097.31
2019-01-14T09:08:28.593Z,76105.31
2019-01-14T09:10:53.427Z,76107.32
2019-01-14T09:13:19.380Z,76112.32
2019-01-14T09:15:45.286Z,76121.33
2019-01-14T09:18:11.188Z,76137.34
2019-01-14T09:20:42.158Z,76124.33
2019-01-14T09:23:08.017Z,76130.34
2019-01-14T09:25:33.916Z,76123.33
2019-01-14T09:27:59.827Z,76131.34
2019-01-14T09:30:25.916Z,76138.34
2019-01-14T09:32:51.846Z,76136.34
2019-01-14T09:35:17.759Z,76144.34
2019-01-14T09:37:44.012Z,76133.34
2019-01-14T09:40:11.850Z,76140.34
2019-01-14T09:42:37.763Z,76143.34
2019-01-14T09:45:04.238Z,76142.34
2019-01-14T09:47:30.142Z,76139.34
2019-01-14T09:49:56.048Z,76132.34
2019-01-14T09:52:21.956Z,76134.34
2019-01-14T09:54:48.227Z,76142.34
2019-01-14T09:57:14.135Z,76151.34
2019-01-14T09:59:40.031Z,76150.34
2019-01-14T10:02:05.927Z,76148.34
2019-01-14T10:04:31.829Z,76146.34
2019-01-14T10:06:57.732Z,76144.34
2019-01-14T10:09:23.633Z,76146.34
2019-01-14T10:11:49.559Z,76155.34
2019-01-14T10:14:15.456Z,76154.34
2019-01-14T10:16:42.551Z,76151.34
2019-01-14T10:19:09.078Z,76158.35
2019-01-14T10:21:34.982Z,76150.34
2019-01-14T10:24:00.923Z,76162.35
2019-01-14T10:26:26.824Z,76159.35
2019-01-14T10:28:56.097Z,76160.35
2019-01-14T10:31:23.388Z,76164.36
2019-01-14T10:33:49.280Z,76149.34
2019-01-14T10:36:15.242Z,76149.34
2019-01-14T10:38:41.127Z,76163.35
2019-01-14T10:41:07.034Z,76160.35
2019-01-14T10:43:32.951Z,76167.36
2019-01-14T10:45:58.861Z,76167.36
2019-01-14T10:48:24.762Z,76157.35
2019-01-14T10:50:50.664Z,76150.34
2019-01-14T10:53:16.578Z,76145.34
2019-01-14T10:55:42.498Z,76152.34
2019-01-14T10:58:08.452Z,76144.34
2019-01-14T11:00:34.333Z,76152.34
2019-01-14T11:03:01.212Z,76156.34
2019-01-14T11:05:27.510Z,76149.34
2019-01-14T11:07:53.831Z,76150.34
2019-01-14T11:10:19.774Z,76161.35
2019-01-14T11:12:45.718Z,76151.34
2019-01-14T11:15:13.374Z,76156.34
2019-01-14T11:17:39.693Z,76149.34
2019-01-14T11:20:07.524Z,76149.34
2019-01-14T11:22:33.456Z,76150.34
2019-01-14T11:24:59.712Z,76148.34
2019-01-14T11:27:25.672Z,76148.34
2019-01-14T11:29:51.597Z,76150.34
2019-01-14T11:32:17.842Z,76151.34
2019-01-14T11:34:44.908Z,76156.34
2019-01-14T11:37:11.127Z,76147.34
2019-01-14T11:39:37.029Z,76150.34
2019-01-14T11:42:03.590Z,76158.35
2019-01-14T11:44:29.547Z,76158.35
2019-01-14T11:46:55.420Z,76168.36
2019-01-14T11:49:21.656Z,76165.36
2019-01-14T11:51:47.542Z,76159.35
2019-01-14T11:54:13.526Z,76147.34
2019-01-14T11:56:40.223Z,76157.35
2019-01-14T11:59:06.180Z,76141.34
2019-01-14T12:01:32.061Z,76156.34
2019-01-14T12:03:58.010Z,76158.35
2019-01-14T12:06:23.949Z,76158.35
2019-01-14T12:08:49.844Z,76164.36
2019-01-14T12:11:15.746Z,76168.36
2019-01-14T12:13:41.642Z,76170.36
2019-01-14T12:16:07.594Z,76182.36
2019-01-14T12:18:33.496Z,76179.36
2019-01-14T12:20:59.415Z,76174.36
2019-01-14T12:23:25.481Z,76201.38
2019-01-14T12:25:51.380Z,76187.37
2019-01-14T12:28:17.497Z,76183.36
2019-01-14T12:30:43.436Z,76177.36
2019-01-14T12:33:09.724Z,76196.38
2019-01-14T12:35:35.627Z,76190.37
2019-01-14T12:38:01.533Z,76201.38
2019-01-14T12:40:27.437Z,76201.38
2019-01-14T12:42:53.340Z,76194.38
2019-01-14T12:45:19.254Z,76192.38
2019-01-14T12:47:45.192Z,76195.38
2019-01-14T12:50:15.437Z,76194.38
2019-01-14T12:52:41.383Z,76199.38
2019-01-14T12:55:08.284Z,76200.38
2019-01-14T12:57:34.190Z,76211.38
2019-01-14T13:00:17.332Z,76216.38
2019-01-14T13:02:43.225Z,76218.39
2019-01-14T13:05:09.231Z,76215.38
2019-01-14T13:07:35.445Z,76220.39
2019-01-14T13:10:01.374Z,76228.39
2019-01-14T13:12:27.276Z,76224.39
2019-01-14T13:14:53.222Z,76218.39
2019-01-14T13:17:19.124Z,76241.41
2019-01-14T13:19:45.024Z,76233.40
2019-01-14T13:22:10.938Z,76239.41
2019-01-14T13:24:36.850Z,76244.41
2019-01-14T13:27:02.741Z,76262.41
2019-01-14T13:29:28.639Z,76270.42
2019-01-14T13:31:54.585Z,76289.43
2019-01-14T13:34:20.473Z,76310.45
2019-01-14T13:36:46.749Z,76298.44
2019-01-14T13:39:12.747Z,76304.44
2019-01-14T13:41:38.683Z,76318.45
2019-01-14T13:44:04.628Z,76334.46
2019-01-14T13:46:30.967Z,76343.47
2019-01-14T13:48:56.858Z,76350.47
2019-01-14T13:51:25.408Z,76358.48
2019-01-14T13:53:51.332Z,76360.48
2019-01-14T13:56:17.219Z,76378.48
2019-01-14T13:58:43.132Z,76365.48
2019-01-14T14:01:09.022Z,76356.48
2019-01-14T14:03:34.917Z,76354.47
2019-01-14T14:06:00.801Z,76360.48
2019-01-14T14:08:29.747Z,76371.48
2019-01-14T14:10:55.651Z,76390.50
2019-01-14T14:13:21.553Z,76380.49
2019-01-14T14:15:47.452Z,76382.49
2019-01-14T14:18:13.815Z,76382.49
2019-01-14T14:20:39.744Z,76382.49
2019-01-14T14:23:05.633Z,76390.50
2019-01-14T14:25:31.560Z,76392.50
2019-01-14T14:27:57.531Z,76396.50
2019-01-14T14:30:25.382Z,76398.50
2019-01-14T14:32:51.282Z,76407.51
2019-01-14T14:35:17.497Z,76407.51
2019-01-14T14:37:43.554Z,76413.52
2019-01-14T14:40:09.784Z,76416.52
2019-01-14T14:42:35.812Z,76415.52
2019-01-14T14:45:01.725Z,76415.52
2019-01-14T14:47:28.029Z,76420.52
2019-01-14T14:49:53.933Z,76426.52
2019-01-14T14:52:20.144Z,76436.53
2019-01-14T14:54:47.234Z,76432.53
2019-01-14T14:57:13.173Z,76440.53
2019-01-14T14:59:39.138Z,76443.53
2019-01-14T15:02:05.084Z,76447.53
2019-01-14T15:04:34.025Z,76443.53
2019-01-14T15:06:59.931Z,76436.53
2019-01-14T15:09:31.615Z,76448.54
2019-01-14T15:11:54.289Z,76452.54
2019-01-14T15:14:20.201Z,76451.54
2019-01-14T15:16:46.425Z,76466.55
2019-01-14T15:19:12.321Z,76469.55
2019-01-14T15:21:38.234Z,76470.55
2019-01-14T15:24:04.841Z,76480.56
2019-01-14T15:26:30.739Z,76477.55
2019-01-14T15:28:56.678Z,76480.56
2019-01-14T15:31:24.497Z,76488.56
2019-01-14T15:33:50.456Z,76492.56
2019-01-14T15:36:16.894Z,76491.56
2019-01-14T15:38:42.832Z,76502.58
2019-01-14T15:41:08.832Z,76509.58
2019-01-14T15:43:34.760Z,76504.58
2019-01-14T15:46:00.670Z,76509.58
2019-01-14T15:48:26.635Z,76513.58
2019-01-14T15:50:55.722Z,76518.59
2019-01-14T15:53:21.719Z,76516.59
2019-01-14T15:55:47.625Z,76522.59
2019-01-14T15:58:13.524Z,76529.59
2019-01-14T16:00:39.745Z,76532.59
2019-01-14T16:03:08.699Z,76535.59
2019-01-14T16:05:34.600Z,76539.60
2019-01-14T16:08:00.657Z,76546.61
2019-01-14T16:10:26.563Z,76555.61
2019-01-14T16:12:53.525Z,76556.61
2019-01-14T16:15:19.430Z,76563.62
2019-01-14T16:17:45.341Z,76567.63
2019-01-14T16:20:18.721Z,76567.63
2019-01-14T16:22:44.619Z,76576.63
2019-01-14T16:25:10.583Z,76584.63
2019-01-14T16:27:36.483Z,76574.63
2019-01-14T16:30:04.100Z,76583.63
2019-01-14T16:32:30.010Z,76577.63
2019-01-14T16:34:55.914Z,76577.63
2019-01-14T16:37:21.816Z,76578.63
2019-01-14T16:39:47.946Z,76582.63
2019-01-14T16:42:13.912Z,76590.64
2019-01-14T16:44:39.811Z,76587.63
2019-01-14T16:47:05.715Z,76586.63
2019-01-14T16:49:31.619Z,76591.64
2019-01-14T16:51:57.513Z,76592.64
2019-01-14T16:54:23.515Z,76592.64
2019-01-14T16:56:49.717Z,76582.63
2019-01-14T16:59:16.022Z,76584.63
2019-01-14T17:01:41.920Z,76594.64
2019-01-14T17:04:07.825Z,76588.64
2019-01-14T17:06:33.746Z,76592.64
2019-01-14T17:09:05.610Z,76603.64
2019-01-14T17:11:31.520Z,76601.64
2019-01-14T17:13:57.428Z,76598.64
2019-01-14T17:16:24.073Z,76596.64
2019-01-14T17:18:50.322Z,76610.66
2019-01-14T17:21:17.329Z,76606.65
2019-01-14T17:23:43.266Z,76606.65
2019-01-14T17:26:09.235Z,76615.66
2019-01-14T17:28:35.134Z,76614.66
2019-01-14T17:31:01.054Z,76626.66
2019-01-14T17:33:27.281Z,76630.67
2019-01-14T17:35:53.210Z,76628.67
2019-01-14T17:38:19.124Z,76639.67
2019-01-14T17:40:45.029Z,76634.67
2019-01-14T17:43:11.143Z,76642.67
2019-01-14T17:45:37.055Z,76643.67
2019-01-14T17:48:02.979Z,76652.69
2019-01-14T17:50:28.891Z,76657.69
2019-01-14T17:52:54.868Z,76660.69
2019-01-14T17:55:21.089Z,76663.69
2019-01-14T17:57:46.989Z,76665.69
2019-01-14T18:00:17.461Z,76669.70
2019-01-14T18:02:43.359Z,76670.70
2019-01-14T18:05:09.266Z,76670.70
2019-01-14T18:07:35.573Z,76678.70
2019-01-14T18:10:01.982Z,76673.70
2019-01-14T18:12:27.981Z,76668.70
2019-01-14T18:14:53.883Z,76679.70
2019-01-14T18:17:20.000Z,76678.70
2019-01-14T18:19:45.908Z,76672.70
2019-01-14T18:22:11.803Z,76681.70
2019-01-14T18:24:37.806Z,76686.70
2019-01-14T18:27:03.721Z,76693.72
2019-01-14T18:29:29.617Z,76693.72
2019-01-14T18:31:55.510Z,76691.71
2019-01-14T18:34:21.416Z,76695.72
2019-01-14T18:36:47.321Z,76696.72
2019-01-14T18:39:13.266Z,76700.72
2019-01-14T18:41:39.164Z,76702.72
2019-01-14T18:44:05.234Z,76705.72
2019-01-14T18:46:31.146Z,76718.73
2019-01-14T18:48:57.036Z,76706.73
2019-01-14T18:51:26.335Z,76704.72
2019-01-14T18:53:52.975Z,76725.73
2019-01-14T18:56:19.291Z,76725.73
2019-01-14T18:58:45.671Z,76727.74
2019-01-14T19:01:12.065Z,76737.75
2019-01-14T19:03:38.149Z,76738.75
2019-01-14T19:06:04.470Z,76729.74
2019-01-14T19:08:30.502Z,76729.74
2019-01-14T19:10:58.259Z,76735.75
2019-01-14T19:13:24.435Z,76741.75
2019-01-14T19:15:50.895Z,76744.75
2019-01-14T19:18:16.792Z,76742.75
2019-01-14T19:20:42.786Z,76748.76
2019-01-14T19:23:08.891Z,76751.76
2019-01-14T19:25:34.926Z,76753.77
2019-01-14T19:28:00.975Z,76758.77
2019-01-14T19:30:27.225Z,76752.76
2019-01-14T19:32:53.610Z,76748.76
2019-01-14T19:35:19.607Z,76754.77
2019-01-14T19:37:45.511Z,76758.77
2019-01-14T19:40:12.642Z,76770.77
2019-01-14T19:42:39.075Z,76761.77
2019-01-14T19:45:06.067Z,76770.77
2019-01-14T19:47:32.094Z,76772.77
2019-01-14T19:49:58.121Z,76767.77
2019-01-14T19:52:24.008Z,76764.77
2019-01-14T19:54:49.951Z,76764.77
2019-01-14T19:57:15.971Z,76766.77
2019-01-14T19:59:42.379Z,76760.77
2019-01-14T20:02:08.290Z,76755.77
2019-01-14T20:04:34.597Z,76766.77
2019-01-14T20:07:00.480Z,76767.77
2019-01-14T20:09:26.438Z,76762.77
2019-01-14T20:11:54.660Z,76769.77
2019-01-14T20:14:20.922Z,76777.78
2019-01-14T20:16:46.973Z,76775.78
2019-01-14T20:19:12.884Z,76782.78
2019-01-14T20:21:38.876Z,76780.78
2019-01-14T20:24:04.940Z,76779.78
2019-01-14T20:26:30.837Z,76780.78
2019-01-14T20:28:56.844Z,76785.78
2019-01-14T20:31:25.716Z,76785.78
2019-01-14T20:33:51.682Z,76790.79
2019-01-14T20:36:17.750Z,76793.79
2019-01-14T20:38:43.833Z,76791.79
2019-01-14T20:41:16.662Z,76785.78
2019-01-14T20:43:40.624Z,76791.79
2019-01-14T20:46:08.487Z,76790.79
2019-01-14T20:48:43.837Z,76792.79
2019-01-14T20:51:10.033Z,76794.79
2019-01-14T20:53:36.094Z,76790.79
2019-01-14T20:56:15.395Z,76790.79
2019-01-14T20:58:41.384Z,76794.79
2019-01-14T21:01:07.368Z,76786.78
2019-01-14T21:03:33.286Z,76791.79
2019-01-14T21:05:59.295Z,76790.79
2019-01-14T21:08:25.221Z,76791.79
2019-01-14T21:10:51.616Z,76787.78
2019-01-14T21:13:17.528Z,76778.78
2019-01-14T21:15:43.587Z,76792.79
2019-01-14T21:18:10.064Z,76792.79
2019-01-14T21:20:36.159Z,76791.79
2019-01-14T21:23:02.111Z,76798.80
2019-01-14T21:25:28.176Z,76788.78
2019-01-14T21:27:54.494Z,76794.79
2019-01-14T21:30:21.529Z,76800.80
2019-01-14T21:32:47.974Z,76803.80
2019-01-14T21:35:15.876Z,76812.81
2019-01-14T21:37:41.872Z,76811.80
2019-01-14T21:40:11.201Z,76826.81
2019-01-14T21:42:37.088Z,76820.81
2019-01-14T21:45:04.321Z,76823.81
2019-01-14T21:47:32.808Z,76826.81
2019-01-14T21:49:58.067Z,76830.82
2019-01-14T21:52:23.970Z,76833.83
2019-01-14T21:54:49.872Z,76823.81
2019-01-14T21:57:15.773Z,76828.82
2019-01-14T21:59:41.674Z,76845.83
2019-01-14T22:02:07.571Z,76846.83
2019-01-14T22:04:33.466Z,76836.83
2019-01-14T22:07:04.340Z,76834.83
2019-01-14T22:09:30.239Z,76840.83
2019-01-14T22:11:56.148Z,76841.83
2019-01-14T22:14:22.061Z,76846.83
2019-01-14T22:16:47.998Z,76858.84
2019-01-14T22:19:16.061Z,76865.84
2019-01-14T22:21:42.120Z,76861.84
2019-01-14T22:24:08.116Z,76863.84
2019-01-14T22:26:34.390Z,76855.84
2019-01-14T22:29:00.435Z,76850.84
2019-01-14T22:31:26.325Z,76854.84
2019-01-14T22:33:54.742Z,76862.84
2019-01-14T22:36:20.654Z,76858.84
2019-01-14T22:38:46.576Z,76849.84
2019-01-14T22:41:12.595Z,76845.83
2019-01-14T22:43:38.483Z,76850.84
2019-01-14T22:46:04.402Z,76846.83
2019-01-14T22:48:30.309Z,76860.84
2019-01-14T22:50:56.367Z,76857.84
2019-01-14T22:53:24.579Z,76849.84
2019-01-14T22:55:50.478Z,76855.84
2019-01-14T22:58:16.389Z,76862.84
2019-01-14T23:00:58.332Z,76857.84
2019-01-14T23:03:24.250Z,76851.84
2019-01-14T23:05:50.165Z,76856.84
2019-01-14T23:08:16.051Z,76858.84
2019-01-14T23:10:41.956Z,76857.84
2019-01-14T23:13:07.902Z,76869.85
2019-01-14T23:15:33.796Z,76871.85
2019-01-14T23:17:59.733Z,76870.85
2019-01-14T23:20:25.633Z,76855.84
2019-01-14T23:22:51.581Z,76845.83
2019-01-14T23:25:17.517Z,76836.83
2019-01-14T23:27:43.442Z,76841.83
2019-01-14T23:30:09.968Z,76837.83
2019-01-14T23:32:38.670Z,76840.83
2019-01-14T23:35:05.574Z,76845.83
2019-01-14T23:37:31.521Z,76846.83
2019-01-14T23:39:57.550Z,76846.83
2019-01-14T23:42:23.504Z,76842.83
2019-01-14T23:44:49.406Z,76840.83
2019-01-14T23:47:15.790Z,76839.83
2019-01-14T23:49:41.721Z,76830.82
2019-01-14T23:52:07.620Z,76839.83
2019-01-14T23:54:37.125Z,76840.83
2019-01-14T23:57:01.265Z,76841.83
2019-01-14T23:59:27.314Z,76839.83
